Time;durP1;ratioP1;P1;durP2;ratioP2;P2;SDS_P1;SDS_P2;PMS_P1;PMS_P2;Temp;Humidity;BMP_temperature;BMP_pressure;BME280_temperature;BME280_humidity;BME280_pressure;Samples;Min_cycle;Max_cycle;Signal;HPM_P1;HPM_P2
2024/03/26 00:00:16;;;;;;;3.00;2.70;;;10.60;54.90;;;;;;5025725;28;20231;-68
2024/03/26 00:02:41;;;;;;;4.23;3.77;;;10.60;55.10;;;;;;5022900;28;20227;-68
2024/03/26 00:05:08;;;;;;;4.40;3.40;;;10.60;55.30;;;;;;5024573;28;20666;-68
2024/03/26 00:07:37;;;;;;;5.03;3.30;;;10.60;55.50;;;;;;5017135;28;20188;-68
2024/03/26 00:10:03;;;;;;;4.20;3.47;;;10.60;55.30;;;;;;5021144;28;20597;-68
2024/03/26 00:12:29;;;;;;;6.17;3.43;;;10.60;55.20;;;;;;5018738;28;20419;-68
2024/03/26 00:14:55;;;;;;;4.80;3.27;;;10.50;55.80;;;;;;5020701;28;20462;-68
2024/03/26 00:17:20;;;;;;;3.60;3.30;;;10.60;55.70;;;;;;5023387;28;20188;-68
2024/03/26 00:19:46;;;;;;;3.77;3.30;;;10.60;55.80;;;;;;5021395;28;20234;-68
2024/03/26 00:22:11;;;;;;;4.10;3.23;;;10.60;55.70;;;;;;5022034;28;20180;-68
2024/03/26 00:24:37;;;;;;;5.10;3.63;;;10.60;55.60;;;;;;5016823;28;20658;-68
2024/03/26 00:27:02;;;;;;;4.40;3.10;;;10.60;55.70;;;;;;5024083;28;20203;-67
2024/03/26 00:29:28;;;;;;;4.00;3.60;;;10.60;55.80;;;;;;5023458;28;20643;-68
2024/03/26 00:31:54;;;;;;;5.27;3.50;;;10.60;55.70;;;;;;5023641;28;20184;-67
2024/03/26 00:34:19;;;;;;;3.47;2.97;;;10.60;55.80;;;;;;5025859;28;20212;-67
2024/03/26 00:36:45;;;;;;;5.30;3.60;;;10.60;55.70;;;;;;5021476;28;20646;-67
2024/03/26 00:39:10;;;;;;;5.23;3.47;;;10.60;55.60;;;;;;5022767;28;20247;-67
2024/03/26 00:41:36;;;;;;;6.50;3.40;;;10.60;55.90;;;;;;5021306;28;20260;-67
2024/03/26 00:44:01;;;;;;;4.03;3.30;;;10.60;55.80;;;;;;5027316;28;20204;-67
2024/03/26 00:46:27;;;;;;;4.13;2.80;;;10.60;55.70;;;;;;5023958;28;20206;-67
2024/03/26 00:48:52;;;;;;;4.33;3.27;;;10.60;55.70;;;;;;5023278;28;20181;-67
2024/03/26 00:51:18;;;;;;;6.50;3.50;;;10.60;55.70;;;;;;5022623;28;20176;-67
2024/03/26 00:53:44;;;;;;;3.50;3.10;;;10.50;55.60;;;;;;5024951;28;20725;-67
2024/03/26 00:56:09;;;;;;;4.17;3.50;;;10.50;55.80;;;;;;5024934;28;20268;-67
2024/03/26 00:58:35;;;;;;;5.23;3.30;;;10.50;56.00;;;;;;5018809;28;20687;-68
2024/03/26 01:01:07;;;;;;;4.53;3.43;;;10.50;55.90;;;;;;5025968;28;20255;-67
2024/03/26 01:03:32;;;;;;;3.80;3.20;;;10.40;56.00;;;;;;5033590;28;20211;-67
2024/03/26 01:05:58;;;;;;;6.90;2.97;;;10.50;56.40;;;;;;5023115;28;20485;-67
2024/03/26 01:08:23;;;;;;;3.53;3.20;;;10.40;56.20;;;;;;5028203;28;20191;-67
2024/03/26 01:10:49;;;;;;;4.47;3.33;;;10.40;56.20;;;;;;5025040;28;20188;-67
2024/03/26 01:13:15;;;;;;;7.00;3.80;;;10.40;56.30;;;;;;5027587;28;20274;-67
2024/03/26 01:15:41;;;;;;;6.20;3.00;;;10.40;56.50;;;;;;5025387;28;20598;-67
2024/03/26 01:18:06;;;;;;;5.67;3.73;;;10.30;56.60;;;;;;5024597;28;20512;-67
2024/03/26 01:20:32;;;;;;;5.90;3.63;;;10.40;56.70;;;;;;5020823;28;20199;-67
2024/03/26 01:22:58;;;;;;;3.43;3.13;;;10.30;56.90;;;;;;5021652;28;20196;-67
2024/03/26 01:25:24;;;;;;;3.27;2.90;;;10.30;57.00;;;;;;5022130;28;20633;-67
2024/03/26 01:27:49;;;;;;;4.40;3.07;;;10.30;57.20;;;;;;5024815;28;20484;-67
2024/03/26 01:30:15;;;;;;;4.50;3.87;;;10.30;57.60;;;;;;5023092;28;20297;-67
2024/03/26 01:32:40;;;;;;;8.07;3.63;;;10.30;57.30;;;;;;5022571;28;20184;-67
2024/03/26 01:35:06;;;;;;;4.90;3.20;;;10.30;57.20;;;;;;5023792;28;20610;-68
2024/03/26 01:37:32;;;;;;;4.93;3.93;;;10.30;57.20;;;;;;5021785;28;20239;-67
2024/03/26 01:39:57;;;;;;;4.33;3.77;;;10.30;57.30;;;;;;5023062;28;20211;-68
2024/03/26 01:42:23;;;;;;;4.50;3.37;;;10.30;57.30;;;;;;5015779;28;20225;-68
2024/03/26 01:44:48;;;;;;;4.37;3.40;;;10.30;57.60;;;;;;5016527;28;20200;-68
2024/03/26 01:47:15;;;;;;;4.37;3.40;;;10.30;57.70;;;;;;5029063;28;20188;-68
2024/03/26 01:49:40;;;;;;;4.37;3.27;;;10.30;57.60;;;;;;5025187;28;20622;-68
2024/03/26 01:52:06;;;;;;;4.13;3.63;;;10.30;57.60;;;;;;5018488;28;20518;-68
2024/03/26 01:54:32;;;;;;;5.30;3.73;;;10.30;57.50;;;;;;5022239;28;20708;-68
2024/03/26 01:56:58;;;;;;;6.87;3.07;;;10.30;57.70;;;;;;5025088;28;20449;-68
2024/03/26 01:59:24;;;;;;;5.90;3.73;;;10.20;57.80;;;;;;5020416;28;20243;-68
2024/03/26 02:01:50;;;;;;;4.50;3.33;;;10.20;58.00;;;;;;5022757;28;20185;-68
2024/03/26 02:04:16;;;;;;;4.50;3.07;;;10.20;58.00;;;;;;5026673;28;20447;-68
2024/03/26 02:06:41;;;;;;;4.77;2.90;;;10.20;58.00;;;;;;5022082;28;20647;-68
2024/03/26 02:09:07;;;;;;;4.80;3.37;;;10.20;58.00;;;;;;5020538;28;20184;-68
2024/03/26 02:11:33;;;;;;;3.90;2.90;;;10.20;58.00;;;;;;5021398;28;21024;-68
2024/03/26 02:13:58;;;;;;;6.50;3.23;;;10.20;58.40;;;;;;5025131;28;20903;-68
2024/03/26 02:16:24;;;;;;;5.17;3.40;;;10.10;58.80;;;;;;5023395;28;20192;-68
2024/03/26 02:18:49;;;;;;;3.33;2.97;;;10.10;58.70;;;;;;5019835;28;20219;-68
2024/03/26 02:21:15;;;;;;;4.30;3.20;;;10.10;58.80;;;;;;5019351;28;20181;-68
2024/03/26 02:23:42;;;;;;;4.13;3.00;;;10.10;59.00;;;;;;5022509;28;20192;-68
2024/03/26 02:26:15;;;;;;;5.97;3.33;;;10.10;58.90;;;;;;5026681;28;20722;-68
2024/03/26 02:28:41;;;;;;;3.80;2.53;;;10.10;59.00;;;;;;5020984;28;20496;-68
2024/03/26 02:31:06;;;;;;;3.40;2.87;;;10.10;59.00;;;;;;5021879;28;20427;-67
2024/03/26 02:33:32;;;;;;;3.67;2.73;;;10.10;59.00;;;;;;5023061;28;20196;-67
2024/03/26 02:35:57;;;;;;;5.53;3.67;;;10.10;59.10;;;;;;5020728;28;20219;-68
2024/03/26 02:38:23;;;;;;;6.00;3.40;;;10.10;59.10;;;;;;5020287;28;20218;-68
2024/03/26 02:40:48;;;;;;;5.63;3.17;;;10.10;59.30;;;;;;5020477;28;20222;-68
2024/03/26 02:43:14;;;;;;;3.37;3.00;;;10.00;59.20;;;;;;5019771;28;20217;-68
2024/03/26 02:45:40;;;;;;;5.13;3.10;;;10.00;59.30;;;;;;5023669;28;20591;-68
2024/03/26 02:48:06;;;;;;;4.00;3.30;;;10.00;59.50;;;;;;5021877;28;20808;-68
2024/03/26 02:50:32;;;;;;;6.20;3.57;;;10.00;59.40;;;;;;5020963;28;20180;-68
2024/03/26 02:52:57;;;;;;;6.40;3.03;;;10.00;59.50;;;;;;5023618;28;20436;-68
2024/03/26 02:55:23;;;;;;;4.50;3.30;;;10.00;59.60;;;;;;5026064;28;20208;-68
2024/03/26 02:57:48;;;;;;;5.37;3.43;;;10.00;59.60;;;;;;5023198;28;20272;-68
2024/03/26 03:00:14;;;;;;;7.23;3.00;;;9.90;61.10;;;;;;5020653;28;20203;-68
2024/03/26 03:02:40;;;;;;;3.03;2.73;;;9.90;61.40;;;;;;5020234;28;20188;-68
2024/03/26 03:05:06;;;;;;;5.93;3.20;;;9.90;61.40;;;;;;5020553;28;20467;-68
2024/03/26 03:07:31;;;;;;;5.03;3.23;;;9.90;61.30;;;;;;5019861;28;20272;-68
2024/03/26 03:09:57;;;;;;;3.40;3.00;;;9.90;61.30;;;;;;5021034;28;20188;-67
2024/03/26 03:12:22;;;;;;;5.27;3.10;;;9.90;61.70;;;;;;5018530;28;20295;-67
2024/03/26 03:14:48;;;;;;;4.10;3.07;;;9.90;61.70;;;;;;5018739;28;20208;-68
2024/03/26 03:17:14;;;;;;;6.57;2.90;;;9.90;61.80;;;;;;5021166;28;20207;-68
2024/03/26 03:19:39;;;;;;;4.13;3.03;;;9.80;61.80;;;;;;5015453;28;20206;-67
2024/03/26 03:22:05;;;;;;;5.60;3.17;;;9.80;62.10;;;;;;5015595;28;20196;-68
2024/03/26 03:24:30;;;;;;;3.07;2.60;;;9.80;62.10;;;;;;5024406;28;20211;-68
2024/03/26 03:26:56;;;;;;;3.90;3.20;;;9.80;62.20;;;;;;5014155;28;20184;-67
2024/03/26 03:29:21;;;;;;;3.90;3.50;;;9.80;62.20;;;;;;5023663;28;20188;-68
2024/03/26 03:31:47;;;;;;;4.27;3.10;;;9.90;62.50;;;;;;5008939;28;20275;-68
2024/03/26 03:34:13;;;;;;;4.40;3.10;;;9.90;62.70;;;;;;5014915;28;20575;-68
2024/03/26 03:36:39;;;;;;;4.70;3.07;;;9.90;62.70;;;;;;5017653;28;20427;-68
2024/03/26 03:39:04;;;;;;;4.70;3.03;;;9.90;62.80;;;;;;5014705;28;20216;-67
2024/03/26 03:41:30;;;;;;;5.10;3.13;;;9.90;63.30;;;;;;5015418;28;20184;-67
2024/03/26 03:43:56;;;;;;;4.37;3.10;;;9.90;63.10;;;;;;5012728;28;20267;-67
2024/03/26 03:46:21;;;;;;;3.23;2.90;;;10.00;61.90;;;;;;5017695;28;20219;-68
2024/03/26 03:48:47;;;;;;;5.33;2.90;;;10.00;61.80;;;;;;5019994;28;20536;-68
2024/03/26 03:51:12;;;;;;;4.40;2.70;;;10.00;61.90;;;;;;5027863;28;20245;-68
2024/03/26 03:53:38;;;;;;;5.30;3.10;;;10.00;61.80;;;;;;5025819;28;20215;-68
2024/03/26 03:56:04;;;;;;;3.43;2.93;;;10.00;61.80;;;;;;5024765;28;20279;-68
2024/03/26 03:58:29;;;;;;;4.17;3.10;;;10.00;62.20;;;;;;5018845;28;20223;-68
2024/03/26 04:00:55;;;;;;;3.80;2.83;;;10.00;62.40;;;;;;5017948;28;20242;-67
2024/03/26 04:03:20;;;;;;;4.70;2.80;;;10.10;62.70;;;;;;5029385;28;20223;-68
2024/03/26 04:05:46;;;;;;;3.97;3.00;;;10.10;62.50;;;;;;5023163;28;20209;-67
2024/03/26 04:08:11;;;;;;;5.40;3.30;;;10.10;62.70;;;;;;5022096;28;20246;-68
2024/03/26 04:10:40;;;;;;;7.80;3.10;;;10.10;62.50;;;;;;5020765;28;20192;-68
2024/03/26 04:13:06;;;;;;;4.20;2.90;;;10.10;62.50;;;;;;5025105;28;20239;-67
2024/03/26 04:15:32;;;;;;;3.87;2.87;;;10.10;62.50;;;;;;5023943;28;20944;-68
2024/03/26 04:17:57;;;;;;;4.50;3.17;;;10.10;62.80;;;;;;5023727;28;20219;-68
2024/03/26 04:20:23;;;;;;;5.07;3.10;;;10.10;63.00;;;;;;5024250;28;20196;-68
2024/03/26 04:22:49;;;;;;;5.20;3.40;;;10.10;63.20;;;;;;5025685;28;20271;-68
2024/03/26 04:25:15;;;;;;;4.90;3.10;;;10.10;63.30;;;;;;5015214;28;20219;-68
2024/03/26 04:27:42;;;;;;;5.70;3.27;;;10.10;63.30;;;;;;5023310;28;20441;-68
2024/03/26 04:30:11;;;;;;;3.70;2.80;;;10.10;63.70;;;;;;5021830;28;20490;-68
2024/03/26 04:32:38;;;;;;;3.57;3.23;;;10.20;63.50;;;;;;5019863;28;20441;-68
2024/03/26 04:35:04;;;;;;;6.00;3.63;;;10.20;63.80;;;;;;5018843;28;20961;-67
2024/03/26 04:37:30;;;;;;;4.27;3.10;;;10.20;63.50;;;;;;5019825;28;20493;-67
2024/03/26 04:39:55;;;;;;;5.97;3.10;;;10.20;63.30;;;;;;5016252;28;20944;-67
2024/03/26 04:42:21;;;;;;;4.80;3.00;;;10.10;63.30;;;;;;5037771;28;20192;-67
2024/03/26 04:44:47;;;;;;;3.83;3.10;;;10.10;63.50;;;;;;5020376;28;20201;-67
2024/03/26 04:47:13;;;;;;;5.60;3.10;;;10.10;63.80;;;;;;5030975;28;20180;-67
2024/03/26 04:49:39;;;;;;;3.73;3.33;;;10.10;63.60;;;;;;5021967;28;20523;-67
2024/03/26 04:52:04;;;;;;;4.80;3.00;;;10.20;63.70;;;;;;5019276;28;20911;-67
2024/03/26 04:54:30;;;;;;;5.93;3.10;;;10.20;63.90;;;;;;5016332;28;20299;-67
2024/03/26 04:56:56;;;;;;;6.00;3.10;;;10.10;64.20;;;;;;5021447;28;20529;-67
2024/03/26 04:59:21;;;;;;;4.47;3.10;;;10.20;64.20;;;;;;5032209;28;20716;-67
2024/03/26 05:01:48;;;;;;;3.70;3.00;;;10.20;64.40;;;;;;5018446;28;20211;-67
2024/03/26 05:04:14;;;;;;;4.30;2.97;;;10.20;64.50;;;;;;5018683;28;20200;-67
2024/03/26 05:06:39;;;;;;;6.00;2.90;;;10.20;64.40;;;;;;5018143;28;20845;-67
2024/03/26 05:09:05;;;;;;;7.70;3.07;;;10.20;64.20;;;;;;5018954;28;20196;-67
2024/03/26 05:11:30;;;;;;;4.23;3.43;;;10.20;64.20;;;;;;5022498;28;20216;-67
2024/03/26 05:13:56;;;;;;;6.27;3.37;;;10.10;64.80;;;;;;5016327;28;20258;-67
2024/03/26 05:16:22;;;;;;;4.83;3.13;;;10.20;64.80;;;;;;5025147;28;20192;-67
2024/03/26 05:18:47;;;;;;;4.80;3.30;;;10.20;65.00;;;;;;5026055;28;20213;-67
2024/03/26 05:21:13;;;;;;;7.17;3.60;;;10.20;64.90;;;;;;5020155;28;20208;-68
2024/03/26 05:23:39;;;;;;;5.23;3.30;;;10.20;65.20;;;;;;5018677;28;20201;-67
2024/03/26 05:26:04;;;;;;;6.03;2.90;;;10.20;65.30;;;;;;5019744;28;20435;-67
2024/03/26 05:28:30;;;;;;;3.40;3.00;;;10.20;65.40;;;;;;5023887;28;20195;-67
2024/03/26 05:31:13;;;;;;;4.80;3.27;;;10.20;65.30;;;;;;5020136;28;20713;-67
2024/03/26 05:33:39;;;;;;;3.40;3.10;;;10.20;65.60;;;;;;5012809;28;20234;-68
2024/03/26 05:36:05;;;;;;;4.03;3.20;;;10.20;65.90;;;;;;5016805;28;20427;-67
2024/03/26 05:38:30;;;;;;;2.97;2.60;;;10.10;66.10;;;;;;5019335;28;20719;-68
2024/03/26 05:40:56;;;;;;;6.60;3.37;;;10.10;66.10;;;;;;5020953;28;20443;-68
2024/03/26 05:43:22;;;;;;;6.87;3.27;;;10.10;66.30;;;;;;5014707;28;20195;-67
2024/03/26 05:45:47;;;;;;;4.10;3.40;;;10.20;66.60;;;;;;5021908;28;20479;-68
2024/03/26 05:48:13;;;;;;;6.27;3.20;;;10.20;66.70;;;;;;5022561;28;20188;-67
2024/03/26 05:50:39;;;;;;;6.23;3.60;;;10.20;66.80;;;;;;5021874;28;20188;-67
2024/03/26 05:53:06;;;;;;;3.30;2.93;;;10.20;66.70;;;;;;5014951;28;20196;-67
2024/03/26 05:55:32;;;;;;;5.97;3.60;;;10.20;67.00;;;;;;5014969;28;21237;-67
2024/03/26 05:57:58;;;;;;;5.60;3.70;;;10.20;67.40;;;;;;5017218;28;20525;-67
2024/03/26 06:00:24;;;;;;;4.53;3.20;;;10.20;67.40;;;;;;5020292;28;20525;-67
2024/03/26 06:02:49;;;;;;;5.53;3.23;;;10.20;67.70;;;;;;5017120;28;20305;-67
2024/03/26 06:05:15;;;;;;;4.07;3.03;;;10.20;67.80;;;;;;5018088;28;20296;-67
2024/03/26 06:07:41;;;;;;;5.90;3.53;;;10.20;68.20;;;;;;5011402;28;20200;-68
2024/03/26 06:10:07;;;;;;;4.80;4.17;;;10.20;68.20;;;;;;5016093;28;20201;-68
2024/03/26 06:12:32;;;;;;;6.30;4.13;;;10.20;68.30;;;;;;5018795;28;20427;-68
2024/03/26 06:14:58;;;;;;;5.20;3.60;;;10.30;68.70;;;;;;5020515;28;20669;-68
2024/03/26 06:17:23;;;;;;;5.17;3.50;;;10.30;68.60;;;;;;5022761;28;20666;-68
2024/03/26 06:19:49;;;;;;;5.03;3.40;;;10.30;68.50;;;;;;5017727;28;20752;-68
2024/03/26 06:22:15;;;;;;;6.67;3.20;;;10.30;68.30;;;;;;5021788;28;20181;-68
2024/03/26 06:24:40;;;;;;;3.60;3.00;;;10.30;68.50;;;;;;5019313;28;20531;-68
2024/03/26 06:27:07;;;;;;;4.33;3.23;;;10.30;68.50;;;;;;5018844;28;20199;-67
2024/03/26 06:29:32;;;;;;;6.40;3.27;;;10.30;68.60;;;;;;5019618;28;20193;-67
2024/03/26 06:31:58;;;;;;;5.80;3.70;;;10.40;68.80;;;;;;5022911;28;20419;-66
2024/03/26 06:34:23;;;;;;;4.37;3.90;;;10.40;69.40;;;;;;5015674;28;20310;-66
2024/03/26 06:36:49;;;;;;;5.73;3.83;;;10.40;69.20;;;;;;5016994;28;20220;-67
2024/03/26 06:39:18;;;;;;;4.63;3.60;;;10.50;69.10;;;;;;5013664;28;20216;-67
2024/03/26 06:41:43;;;;;;;11.37;3.40;;;10.50;68.80;;;;;;5014878;28;20374;-66
2024/03/26 06:44:09;;;;;;;6.30;3.67;;;10.50;68.60;;;;;;5022422;28;20444;-66
2024/03/26 06:46:34;;;;;;;9.03;3.47;;;10.60;68.70;;;;;;5021502;28;20187;-67
2024/03/26 06:49:00;;;;;;;7.07;4.00;;;10.60;68.60;;;;;;5025698;28;20217;-66
2024/03/26 06:51:25;;;;;;;6.03;3.63;;;10.70;68.80;;;;;;5017278;28;20184;-66
2024/03/26 06:53:52;;;;;;;9.20;4.30;;;10.70;68.90;;;;;;5012716;28;20314;-66
2024/03/26 06:56:18;;;;;;;7.50;4.10;;;10.70;68.90;;;;;;5015540;28;20184;-66
2024/03/26 06:58:45;;;;;;;7.87;4.10;;;10.70;68.80;;;;;;5015562;28;20462;-66
2024/03/26 07:01:11;;;;;;;8.27;4.20;;;10.80;69.50;;;;;;5019710;28;20184;-66
2024/03/26 07:03:36;;;;;;;5.07;3.70;;;10.80;69.30;;;;;;5015673;28;20415;-66
2024/03/26 07:06:04;;;;;;;4.70;4.20;;;10.80;69.30;;;;;;5018830;28;20805;-65
2024/03/26 07:08:31;;;;;;;5.53;3.90;;;10.80;70.30;;;;;;5025174;28;20192;-67
2024/03/26 07:10:57;;;;;;;6.40;3.93;;;10.90;70.50;;;;;;5019750;28;20431;-66
2024/03/26 07:13:26;;;;;;;6.47;4.00;;;11.00;70.20;;;;;;5023841;28;20435;-67
2024/03/26 07:15:52;;;;;;;6.13;3.63;;;11.00;70.20;;;;;;5025074;28;20624;-66
2024/03/26 07:18:19;;;;;;;4.77;3.87;;;11.00;70.90;;;;;;5019372;28;20466;-67
2024/03/26 07:20:45;;;;;;;5.33;3.77;;;11.00;70.90;;;;;;5022275;28;21833;-68
2024/03/26 07:23:11;;;;;;;5.93;4.23;;;11.00;70.90;;;;;;5023471;28;20434;-67
2024/03/26 07:25:36;;;;;;;4.10;3.50;;;11.00;71.50;;;;;;5024106;28;20441;-66
2024/03/26 07:28:02;;;;;;;4.20;3.53;;;11.10;71.60;;;;;;5021632;28;20192;-66
2024/03/26 07:30:28;;;;;;;5.90;3.83;;;11.20;71.60;;;;;;5024165;28;20183;-67
2024/03/26 07:32:53;;;;;;;3.93;3.43;;;11.20;71.80;;;;;;5023022;28;20702;-66
2024/03/26 07:35:19;;;;;;;4.03;3.60;;;11.30;71.90;;;;;;5024187;28;20208;-66
2024/03/26 07:37:47;;;;;;;9.57;4.20;;;11.40;71.60;;;;;;5021710;28;20195;-67
2024/03/26 07:40:13;;;;;;;6.57;4.10;;;11.40;71.50;;;;;;5021305;28;20835;-67
2024/03/26 07:42:39;;;;;;;4.73;3.60;;;11.50;71.80;;;;;;5022205;28;20477;-67
2024/03/26 07:45:05;;;;;;;6.10;3.63;;;11.50;71.70;;;;;;5019495;28;20931;-67
2024/03/26 07:47:30;;;;;;;5.33;3.40;;;11.60;71.40;;;;;;5023854;28;20604;-66
2024/03/26 07:49:57;;;;;;;5.63;3.83;;;11.60;71.30;;;;;;5035016;28;21167;-67
2024/03/26 07:52:22;;;;;;;5.13;3.80;;;11.70;71.10;;;;;;5018783;28;20180;-67
2024/03/26 07:54:48;;;;;;;5.60;3.70;;;11.70;71.10;;;;;;5019073;28;20509;-67
2024/03/26 07:57:13;;;;;;;6.10;3.67;;;11.70;71.80;;;;;;5021924;28;20188;-67
2024/03/26 07:59:39;;;;;;;6.00;3.53;;;11.80;71.60;;;;;;5021124;28;20239;-68
2024/03/26 08:02:05;;;;;;;5.73;3.47;;;11.90;71.50;;;;;;5021595;28;20181;-67
2024/03/26 08:04:30;;;;;;;7.33;4.30;;;11.90;71.20;;;;;;5024655;28;20573;-67
2024/03/26 08:06:56;;;;;;;5.00;3.83;;;11.90;71.30;;;;;;5024789;28;20180;-67
2024/03/26 08:09:21;;;;;;;6.67;4.37;;;11.80;70.40;;;;;;5026605;28;20187;-67
2024/03/26 08:11:47;;;;;;;8.03;4.70;;;11.90;70.80;;;;;;5026967;28;20242;-67
2024/03/26 08:14:12;;;;;;;4.00;3.60;;;12.00;70.70;;;;;;5026205;28;20670;-65
2024/03/26 08:16:38;;;;;;;6.93;3.60;;;12.00;70.30;;;;;;5019208;28;20180;-67
2024/03/26 08:19:03;;;;;;;4.30;3.63;;;12.10;70.10;;;;;;5030377;28;20212;-67
2024/03/26 08:21:29;;;;;;;7.10;4.33;;;12.10;70.00;;;;;;5020743;28;20198;-67
2024/03/26 08:23:54;;;;;;;8.00;4.07;;;12.20;70.10;;;;;;5026482;28;20204;-66
2024/03/26 08:26:20;;;;;;;5.20;3.90;;;12.20;70.50;;;;;;5024208;28;20561;-67
2024/03/26 08:28:46;;;;;;;4.80;4.13;;;12.20;70.10;;;;;;5027211;28;20223;-66
2024/03/26 08:31:11;;;;;;;8.83;4.07;;;12.20;69.50;;;;;;5022437;28;20208;-67
2024/03/26 08:33:37;;;;;;;4.90;3.57;;;12.20;69.60;;;;;;5027418;28;20280;-67
2024/03/26 08:36:04;;;;;;;4.57;4.00;;;12.20;69.40;;;;;;5024224;28;20270;-67
2024/03/26 08:38:30;;;;;;;10.33;4.17;;;12.30;69.40;;;;;;5025141;28;20208;-67
2024/03/26 08:40:56;;;;;;;5.93;3.90;;;12.30;69.40;;;;;;5022237;28;20415;-67
2024/03/26 08:43:22;;;;;;;6.00;3.77;;;12.40;69.30;;;;;;5028118;28;20419;-67
2024/03/26 08:45:48;;;;;;;10.53;5.33;;;12.50;69.40;;;;;;5021270;28;20258;-67
2024/03/26 08:48:14;;;;;;;5.40;4.23;;;12.50;69.40;;;;;;5028990;28;21450;-67
2024/03/26 08:50:39;;;;;;;7.47;4.00;;;12.50;69.20;;;;;;5026415;28;20435;-67
2024/03/26 08:53:05;;;;;;;4.80;4.03;;;12.60;69.30;;;;;;5024345;28;20196;-67
2024/03/26 08:55:32;;;;;;;5.27;4.27;;;12.70;69.30;;;;;;5025042;28;20212;-67
2024/03/26 08:57:58;;;;;;;5.87;4.17;;;12.70;68.90;;;;;;5023890;28;20527;-67
2024/03/26 09:00:23;;;;;;;5.10;3.60;;;12.80;68.90;;;;;;5020154;28;20795;-67
2024/03/26 09:02:49;;;;;;;6.57;4.50;;;12.80;68.70;;;;;;5022827;28;20196;-67
2024/03/26 09:05:14;;;;;;;5.20;4.13;;;12.90;68.50;;;;;;5017306;28;20255;-67
2024/03/26 09:07:40;;;;;;;8.67;4.23;;;13.00;68.40;;;;;;5019875;28;20260;-67
2024/03/26 09:10:06;;;;;;;6.80;3.87;;;13.10;68.10;;;;;;5026817;28;20700;-67
2024/03/26 09:12:38;;;;;;;7.63;4.13;;;13.10;67.80;;;;;;5022159;28;20443;-67
2024/03/26 09:15:04;;;;;;;5.57;3.70;;;13.20;66.40;;;;;;5034045;28;20453;-66
2024/03/26 09:17:30;;;;;;;7.03;3.63;;;13.20;66.50;;;;;;5021479;28;20562;-67
2024/03/26 09:19:56;;;;;;;5.73;3.87;;;13.30;66.70;;;;;;5015958;28;20514;-67
2024/03/26 09:22:22;;;;;;;5.20;4.10;;;13.40;66.70;;;;;;5019280;28;20189;-67
2024/03/26 09:24:47;;;;;;;11.43;4.30;;;13.40;66.90;;;;;;5025003;28;20638;-67
2024/03/26 09:27:13;;;;;;;4.37;3.97;;;13.50;66.70;;;;;;5024994;28;20183;-67
2024/03/26 09:29:39;;;;;;;5.57;4.10;;;13.50;65.70;;;;;;5018422;28;20191;-68
2024/03/26 09:32:08;;;;;;;4.10;3.40;;;13.60;66.00;;;;;;5018435;28;20242;-67
2024/03/26 09:34:34;;;;;;;4.80;4.27;;;13.60;65.70;;;;;;5022097;28;20483;-67
2024/03/26 09:37:00;;;;;;;5.60;4.90;;;13.70;66.10;;;;;;5021359;28;20470;-67
2024/03/26 09:39:25;;;;;;;6.23;3.83;;;13.70;66.00;;;;;;5016608;28;21146;-67
2024/03/26 09:41:54;;;;;;;5.60;4.23;;;13.80;65.90;;;;;;5018241;28;20184;-67
2024/03/26 09:44:21;;;;;;;9.27;4.93;;;13.80;65.70;;;;;;5024227;28;20262;-67
2024/03/26 09:46:48;;;;;;;7.20;5.00;;;13.80;65.90;;;;;;5017991;28;20541;-68
2024/03/26 09:49:14;;;;;;;6.53;5.07;;;13.90;65.90;;;;;;5020767;28;20933;-68
2024/03/26 09:51:43;;;;;;;8.40;4.80;;;14.00;66.00;;;;;;5019661;28;20431;-67
2024/03/26 09:54:10;;;;;;;10.80;8.17;;;14.00;66.40;;;;;;5021829;28;20439;-67
2024/03/26 09:56:36;;;;;;;5.63;4.70;;;14.10;66.60;;;;;;5022202;28;20427;-66
2024/03/26 09:59:01;;;;;;;7.03;4.63;;;14.20;66.50;;;;;;5016211;28;20987;-67
2024/03/26 10:01:30;;;;;;;5.83;4.13;;;14.20;66.60;;;;;;5023873;28;20216;-67
2024/03/26 10:03:56;;;;;;;5.83;4.47;;;14.30;67.40;;;;;;5022628;28;20181;-66
2024/03/26 10:06:22;;;;;;;4.43;4.00;;;14.40;66.50;;;;;;5024740;28;20438;-67
2024/03/26 10:08:48;;;;;;;4.43;3.90;;;14.40;66.40;;;;;;5021300;28;20442;-68
2024/03/26 10:11:14;;;;;;;8.90;4.37;;;14.40;66.50;;;;;;5013898;28;20505;-68
2024/03/26 10:13:39;;;;;;;8.10;4.70;;;14.40;66.30;;;;;;5018936;28;20180;-67
2024/03/26 10:16:05;;;;;;;4.80;4.27;;;14.40;66.00;;;;;;5020421;28;20183;-67
2024/03/26 10:18:31;;;;;;;4.73;4.33;;;14.40;65.90;;;;;;5024057;28;20240;-66
2024/03/26 10:20:58;;;;;;;4.97;4.20;;;14.40;66.20;;;;;;5019227;28;20207;-66
2024/03/26 10:23:24;;;;;;;5.13;3.90;;;14.40;66.30;;;;;;5020765;28;20197;-67
2024/03/26 10:25:49;;;;;;;8.00;4.10;;;14.40;66.10;;;;;;5016821;28;21504;-67
2024/03/26 10:28:15;;;;;;;5.03;4.30;;;14.50;66.10;;;;;;5022764;28;20197;-66
2024/03/26 10:30:41;;;;;;;6.87;4.10;;;14.60;66.40;;;;;;5025447;28;20501;-67
2024/03/26 10:33:09;;;;;;;4.63;4.20;;;14.60;66.30;;;;;;5022597;28;20271;-67
2024/03/26 10:35:39;;;;;;;5.07;4.10;;;14.70;66.20;;;;;;5018722;28;20236;-66
2024/03/26 10:38:09;;;;;;;6.23;4.53;;;14.80;66.50;;;;;;5016284;28;20441;-66
2024/03/26 10:40:51;;;;;;;4.97;4.20;;;14.90;66.00;;;;;;5022035;28;20454;-67
2024/03/26 10:43:17;;;;;;;6.33;4.07;;;15.00;66.00;;;;;;5019097;28;20454;-67
2024/03/26 10:45:44;;;;;;;5.40;3.97;;;15.10;65.60;;;;;;5020135;28;20458;-66
2024/03/26 10:48:11;;;;;;;6.07;4.70;;;15.20;65.50;;;;;;5016193;28;20197;-66
2024/03/26 10:50:37;;;;;;;4.90;3.80;;;15.20;65.40;;;;;;5017050;28;20431;-66
2024/03/26 10:53:04;;;;;;;3.97;3.57;;;15.30;64.40;;;;;;5020667;28;20446;-66
2024/03/26 10:55:32;;;;;;;5.53;3.87;;;15.30;64.20;;;;;;5015097;28;20467;-67
2024/03/26 10:57:58;;;;;;;6.97;3.97;;;15.40;63.90;;;;;;5018626;28;20517;-67
2024/03/26 11:00:23;;;;;;;5.40;4.47;;;15.50;64.30;;;;;;5022423;28;20468;-68
2024/03/26 11:02:53;;;;;;;6.53;4.10;;;15.60;64.20;;;;;;5020993;28;20317;-68
2024/03/26 11:05:20;;;;;;;4.77;4.27;;;15.70;64.00;;;;;;5020730;28;20211;-68
2024/03/26 11:07:48;;;;;;;10.80;9.70;;;15.80;64.00;;;;;;5016977;28;20959;-67
2024/03/26 11:10:17;;;;;;;9.30;8.10;;;15.90;64.30;;;;;;5019445;28;20455;-66
2024/03/26 11:12:47;;;;;;;8.67;5.97;;;16.00;64.40;;;;;;5012264;28;20531;-67
2024/03/26 11:15:21;;;;;;;15.07;11.63;;;16.10;63.70;;;;;;5020337;28;20602;-68
2024/03/26 11:17:56;;;;;;;5.80;5.10;;;16.10;63.80;;;;;;5011916;28;20451;-66
2024/03/26 11:20:28;;;;;;;5.60;4.07;;;16.10;64.00;;;;;;5019156;28;20532;-66
2024/03/26 11:23:04;;;;;;;6.93;5.10;;;16.20;64.00;;;;;;5020673;28;20458;-67
2024/03/26 11:25:31;;;;;;;4.60;4.17;;;16.30;64.00;;;;;;5020733;28;20439;-65
2024/03/26 11:27:58;;;;;;;5.53;4.40;;;16.30;63.70;;;;;;5023631;28;20819;-67
2024/03/26 11:30:29;;;;;;;6.17;5.10;;;16.40;63.40;;;;;;5032483;28;20426;-68
2024/03/26 11:32:56;;;;;;;8.23;4.60;;;16.40;63.20;;;;;;5020009;28;20984;-67
2024/03/26 11:35:26;;;;;;;6.13;4.77;;;16.50;62.80;;;;;;5013743;28;20466;-67
2024/03/26 11:37:53;;;;;;;7.93;3.90;;;16.60;62.50;;;;;;5018655;28;20426;-67
2024/03/26 11:40:19;;;;;;;5.53;4.20;;;16.60;61.80;;;;;;5020812;28;20494;-67
2024/03/26 11:42:47;;;;;;;6.83;4.23;;;16.70;61.20;;;;;;5022656;28;20422;-67
2024/03/26 11:45:14;;;;;;;7.00;4.50;;;16.80;60.50;;;;;;5016622;28;20862;-67
2024/03/26 11:47:40;;;;;;;5.30;4.07;;;16.90;60.30;;;;;;5022524;28;20431;-68
2024/03/26 11:50:07;;;;;;;4.70;4.20;;;17.10;60.60;;;;;;5024906;28;20441;-66
2024/03/26 11:52:33;;;;;;;4.40;3.53;;;17.30;60.60;;;;;;5018886;28;20457;-67
2024/03/26 11:55:01;;;;;;;5.70;4.57;;;17.50;60.70;;;;;;5019676;28;20458;-65
2024/03/26 11:57:27;;;;;;;5.83;4.40;;;17.70;60.20;;;;;;5014124;28;20770;-65
2024/03/26 11:59:53;;;;;;;5.60;4.67;;;17.90;59.50;;;;;;5017293;28;20504;-65
2024/03/26 12:02:19;;;;;;;4.70;4.03;;;18.20;59.00;;;;;;5017367;28;20853;-66
2024/03/26 12:04:44;;;;;;;6.70;4.73;;;18.50;58.80;;;;;;5015803;28;20211;-66
2024/03/26 12:07:23;;;;;;;4.53;4.03;;;19.10;58.90;;;;;;5019995;28;20180;-66
2024/03/26 12:09:49;;;;;;;5.60;4.40;;;20.20;58.90;;;;;;5023133;28;20851;-65
2024/03/26 12:12:14;;;;;;;6.70;4.17;;;21.80;57.10;;;;;;5018419;28;20442;-66
2024/03/26 12:14:40;;;;;;;7.17;4.63;;;23.00;55.20;;;;;;5020681;28;20223;-67
2024/03/26 12:17:06;;;;;;;5.80;4.50;;;23.70;52.80;;;;;;5016765;28;20258;-66
2024/03/26 12:19:34;;;;;;;5.00;4.50;;;23.80;51.60;;;;;;5019296;28;20467;-66
2024/03/26 12:22:16;;;;;;;6.47;4.50;;;24.20;51.30;;;;;;5017046;28;20446;-66
2024/03/26 12:24:41;;;;;;;6.83;4.50;;;24.70;49.90;;;;;;5020498;28;20458;-66
2024/03/26 12:27:09;;;;;;;7.03;4.90;;;25.60;49.60;;;;;;5022940;28;20974;-66
2024/03/26 12:29:35;;;;;;;7.43;5.63;;;26.50;48.50;;;;;;5025223;28;20240;-67
2024/03/26 12:32:01;;;;;;;8.17;7.37;;;27.20;47.20;;;;;;5023493;28;20917;-68
2024/03/26 12:34:27;;;;;;;6.47;5.80;;;28.20;46.20;;;;;;5019317;28;20964;-66
2024/03/26 12:36:53;;;;;;;10.50;5.53;;;28.90;44.00;;;;;;5019126;28;20200;-66
2024/03/26 12:39:20;;;;;;;6.53;4.63;;;29.30;42.50;;;;;;5022311;28;20463;-66
2024/03/26 12:41:45;;;;;;;9.03;5.00;;;29.80;41.00;;;;;;5017337;28;20557;-66